createdAt,value
2019-03-31T00:00:12.587Z,23.30
2019-03-31T00:01:12.509Z,24.30
2019-03-31T00:02:12.411Z,23.90
2019-03-31T00:03:12.337Z,22.40
2019-03-31T00:04:12.251Z,25.00
2019-03-31T00:05:12.175Z,22.70
2019-03-31T00:06:12.088Z,23.20
2019-03-31T00:07:12.000Z,24.60
2019-03-31T00:08:11.926Z,24.10
2019-03-31T00:09:11.840Z,24.10
2019-03-31T00:10:11.812Z,23.40
2019-03-31T00:11:11.676Z,23.20
2019-03-31T00:12:11.588Z,22.80
2019-03-31T00:13:11.501Z,23.10
2019-03-31T00:14:11.427Z,24.90
2019-03-31T00:15:11.339Z,24.90
2019-03-31T00:16:11.264Z,23.30
2019-03-31T00:17:11.177Z,25.00
2019-03-31T00:18:11.092Z,26.30
2019-03-31T00:19:11.015Z,23.40
2019-03-31T00:20:10.934Z,23.30
2019-03-31T00:21:10.840Z,24.50
2019-03-31T00:22:10.764Z,24.30
2019-03-31T00:23:10.677Z,24.30
2019-03-31T00:24:10.590Z,23.50
2019-03-31T00:25:10.515Z,23.90
2019-03-31T00:26:10.427Z,23.20
2019-03-31T00:27:10.357Z,25.10
2019-03-31T00:28:10.264Z,25.20
2019-03-31T00:29:10.179Z,24.90
2019-03-31T00:30:10.104Z,22.80
2019-03-31T00:31:21.426Z,24.80
2019-03-31T00:32:09.935Z,26.10
2019-03-31T00:33:09.853Z,24.10
2019-03-31T00:34:09.767Z,25.00
2019-03-31T00:35:09.690Z,24.30
2019-03-31T00:36:09.609Z,26.70
2019-03-31T00:37:09.516Z,23.30
2019-03-31T00:38:09.442Z,23.40
2019-03-31T00:39:09.356Z,24.60
2019-03-31T00:40:09.267Z,23.10
2019-03-31T00:41:09.191Z,25.50
2019-03-31T00:42:09.105Z,23.30
2019-03-31T00:43:09.019Z,24.80
2019-03-31T00:44:08.942Z,26.20
2019-03-31T00:45:08.855Z,22.20
2019-03-31T00:46:08.785Z,23.90
2019-03-31T00:47:08.692Z,25.70
2019-03-31T00:48:08.605Z,26.90
2019-03-31T00:49:08.530Z,23.90
2019-03-31T00:50:08.442Z,23.50
2019-03-31T00:51:08.355Z,23.80
2019-03-31T00:52:08.280Z,25.20
2019-03-31T00:53:08.195Z,26.10
2019-03-31T00:54:08.117Z,24.00
2019-03-31T00:55:08.031Z,23.20
2019-03-31T00:56:07.943Z,23.60
2019-03-31T00:57:07.873Z,25.30
2019-03-31T00:58:07.781Z,23.90
2019-03-31T00:59:07.694Z,25.50
2019-03-31T01:00:07.618Z,25.70
2019-03-31T01:01:07.533Z,23.70
2019-03-31T01:02:07.443Z,24.40
2019-03-31T01:03:07.369Z,23.10
2019-03-31T01:04:07.282Z,23.30
2019-03-31T01:05:07.196Z,24.80
2019-03-31T01:06:07.132Z,24.50
2019-03-31T01:07:07.032Z,24.00
2019-03-31T01:08:06.958Z,23.70
2019-03-31T01:09:06.870Z,24.70
2019-03-31T01:10:06.782Z,21.40
2019-03-31T01:11:06.709Z,23.90
2019-03-31T01:12:06.620Z,23.50
2019-03-31T01:13:06.533Z,23.30
2019-03-31T01:14:06.459Z,24.00
2019-03-31T01:15:06.372Z,22.50
2019-03-31T01:16:06.283Z,24.00
2019-03-31T01:17:06.259Z,21.70
2019-03-31T01:18:06.135Z,22.80
2019-03-31T01:19:06.035Z,23.20
2019-03-31T01:20:05.963Z,23.60
2019-03-31T01:21:05.870Z,22.30
2019-03-31T01:22:05.784Z,22.30
2019-03-31T01:23:05.708Z,22.40
2019-03-31T01:24:05.622Z,22.70
2019-03-31T01:25:05.537Z,20.80
2019-03-31T01:26:05.468Z,22.10
2019-03-31T01:27:05.371Z,22.50
2019-03-31T01:28:05.296Z,21.70
2019-03-31T01:29:05.210Z,21.00
2019-03-31T01:30:05.122Z,23.90
2019-03-31T01:31:05.046Z,22.50
2019-03-31T01:32:04.959Z,22.50
2019-03-31T01:33:04.875Z,22.30
2019-03-31T01:34:04.796Z,23.60
2019-03-31T01:35:04.710Z,21.40
2019-03-31T01:36:04.624Z,21.70
2019-03-31T01:37:04.547Z,20.70
2019-03-31T01:38:04.461Z,22.20
2019-03-31T01:39:04.373Z,22.60
2019-03-31T01:40:04.297Z,20.90
2019-03-31T01:41:04.212Z,20.40
2019-03-31T01:42:04.123Z,22.80
2019-03-31T01:43:04.048Z,23.20
2019-03-31T01:44:03.967Z,24.80
2019-03-31T01:45:03.876Z,21.30
2019-03-31T01:46:03.799Z,22.00
2019-03-31T01:47:03.713Z,21.40
2019-03-31T01:48:03.626Z,23.40
2019-03-31T01:49:03.565Z,21.20
2019-03-31T01:50:03.462Z,23.00
2019-03-31T01:51:03.386Z,23.10
2019-03-31T01:52:03.299Z,24.40
2019-03-31T01:53:03.224Z,24.10
2019-03-31T01:54:03.137Z,21.70
2019-03-31T01:55:03.062Z,22.50
2019-03-31T01:56:02.964Z,24.40
2019-03-31T01:57:02.890Z,20.10
2019-03-31T01:58:02.799Z,23.10
2019-03-31T01:59:02.794Z,22.10
2019-03-31T02:00:02.639Z,22.20
2019-03-31T02:01:02.563Z,24.10
2019-03-31T02:02:04.546Z,23.80
2019-03-31T02:03:02.388Z,24.20
2019-03-31T02:04:02.308Z,23.80
2019-03-31T02:05:02.226Z,23.30
2019-03-31T02:06:02.140Z,23.00
2019-03-31T02:07:02.053Z,24.20
2019-03-31T02:08:01.979Z,23.40
2019-03-31T02:09:01.889Z,23.10
2019-03-31T02:10:01.808Z,24.30
2019-03-31T02:11:01.730Z,26.80
2019-03-31T02:12:01.641Z,25.40
2019-03-31T02:13:01.567Z,24.90
2019-03-31T02:14:01.481Z,21.50
2019-03-31T02:15:01.388Z,25.30
2019-03-31T02:16:01.315Z,23.10
2019-03-31T02:17:01.227Z,23.20
2019-03-31T02:18:01.140Z,25.00
2019-03-31T02:19:01.064Z,25.00
2019-03-31T02:20:00.977Z,24.10
2019-03-31T02:21:00.890Z,23.80
2019-03-31T02:22:00.815Z,24.70
2019-03-31T02:23:00.727Z,26.00
2019-03-31T02:24:00.647Z,27.70
2019-03-31T02:25:00.567Z,24.60
2019-03-31T02:26:00.478Z,23.40
2019-03-31T02:27:00.415Z,25.70
2019-03-31T02:28:00.318Z,24.20
2019-03-31T02:29:00.231Z,25.00
2019-03-31T02:30:00.430Z,25.60
2019-03-31T02:31:00.068Z,25.30
2019-03-31T02:31:59.980Z,26.30
2019-03-31T02:32:59.905Z,24.80
2019-03-31T02:33:59.819Z,27.50
2019-03-31T02:34:59.731Z,24.20
2019-03-31T02:35:59.654Z,25.50
2019-03-31T02:36:59.568Z,26.50
2019-03-31T02:37:59.491Z,26.00
2019-03-31T02:38:59.406Z,25.00
2019-03-31T02:39:59.318Z,26.70
2019-03-31T02:40:59.245Z,25.80
2019-03-31T02:41:59.156Z,26.90
2019-03-31T02:42:59.069Z,25.40
2019-03-31T02:43:58.994Z,23.70
2019-03-31T02:44:58.910Z,30.30
2019-03-31T02:45:58.820Z,25.00
2019-03-31T02:46:58.743Z,27.80
2019-03-31T02:47:58.657Z,27.00
2019-03-31T02:48:58.570Z,26.40
2019-03-31T02:49:58.494Z,26.50
2019-03-31T02:50:58.410Z,26.80
2019-03-31T02:51:58.322Z,26.00
2019-03-31T02:52:58.244Z,29.40
2019-03-31T02:53:58.156Z,27.50
2019-03-31T02:54:58.083Z,29.40
2019-03-31T02:55:58.001Z,28.60
2019-03-31T02:56:57.905Z,29.90
2019-03-31T02:57:57.830Z,28.70
2019-03-31T02:58:57.750Z,29.60
2019-03-31T02:59:57.657Z,28.90
2019-03-31T03:00:57.587Z,30.00
2019-03-31T03:01:57.501Z,30.40
2019-03-31T03:02:57.407Z,28.10
2019-03-31T03:03:57.333Z,29.90
2019-03-31T03:04:57.247Z,29.50
2019-03-31T03:05:57.160Z,30.10
2019-03-31T03:06:57.094Z,31.50
2019-03-31T03:07:56.995Z,28.70
2019-03-31T03:08:56.927Z,32.20
2019-03-31T03:09:56.834Z,31.10
2019-03-31T03:10:56.747Z,32.00
2019-03-31T03:11:56.658Z,32.00
2019-03-31T03:12:56.585Z,30.00
2019-03-31T03:13:56.497Z,35.80
2019-03-31T03:14:56.421Z,32.00
2019-03-31T03:15:56.333Z,32.90
2019-03-31T03:16:56.247Z,31.00
2019-03-31T03:17:56.159Z,33.20
2019-03-31T03:18:56.101Z,32.80
2019-03-31T03:19:55.998Z,30.80
2019-03-31T03:20:55.914Z,32.20
2019-03-31T03:21:55.840Z,35.90
2019-03-31T03:22:55.748Z,32.70
2019-03-31T03:23:55.659Z,32.80
2019-03-31T03:24:55.593Z,34.00
2019-03-31T03:25:56.801Z,34.00
2019-03-31T03:26:55.422Z,35.40
2019-03-31T03:27:55.347Z,34.60
2019-03-31T03:28:55.247Z,35.10
2019-03-31T03:29:55.159Z,34.60
2019-03-31T03:30:55.320Z,32.30
2019-03-31T03:31:55.023Z,37.40
2019-03-31T03:33:13.594Z,34.50
2019-03-31T03:33:54.852Z,37.40
2019-03-31T03:34:54.750Z,38.60
2019-03-31T03:35:54.661Z,39.30
2019-03-31T03:36:54.587Z,34.80
2019-03-31T03:37:54.507Z,39.80
2019-03-31T03:38:54.412Z,39.10
2019-03-31T03:39:54.337Z,38.30
2019-03-31T03:40:54.257Z,37.30
2019-03-31T03:41:54.174Z,41.80
2019-03-31T03:42:54.090Z,37.00
2019-03-31T03:43:56.365Z,40.50
2019-03-31T03:44:53.912Z,44.20
2019-03-31T03:45:53.849Z,41.90
2019-03-31T03:46:53.750Z,40.90
2019-03-31T03:47:53.666Z,39.20
2019-03-31T03:48:53.641Z,39.90
2019-03-31T03:49:53.502Z,43.20
2019-03-31T03:50:53.423Z,41.10
2019-03-31T03:51:53.325Z,42.60
2019-03-31T03:52:53.263Z,43.00
2019-03-31T03:53:53.165Z,42.00
2019-03-31T03:54:53.076Z,42.90
2019-03-31T03:55:53.002Z,43.30
2019-03-31T03:56:52.914Z,43.10
2019-03-31T03:57:52.825Z,45.20
2019-03-31T03:58:52.751Z,44.00
2019-03-31T03:59:52.664Z,45.70
2019-03-31T04:00:52.577Z,43.70
2019-03-31T04:01:52.509Z,44.20
2019-03-31T04:02:52.413Z,42.90
2019-03-31T04:03:52.329Z,48.50
2019-03-31T04:04:52.252Z,47.20
2019-03-31T04:05:52.167Z,43.40
2019-03-31T04:06:52.078Z,44.70
2019-03-31T04:07:51.991Z,45.20
2019-03-31T04:08:51.914Z,43.70
2019-03-31T04:09:51.829Z,48.40
2019-03-31T04:10:51.753Z,46.70
2019-03-31T04:11:51.669Z,46.10
2019-03-31T04:12:51.584Z,45.30
2019-03-31T04:13:51.535Z,44.50
2019-03-31T04:14:51.418Z,47.50
2019-03-31T04:15:51.328Z,45.80
2019-03-31T04:16:51.254Z,46.70
2019-03-31T04:17:51.166Z,47.80
2019-03-31T04:18:51.085Z,47.00
2019-03-31T04:19:50.992Z,45.40
2019-03-31T04:20:50.916Z,48.00
2019-03-31T04:21:50.855Z,46.10
2019-03-31T04:22:50.760Z,45.60
2019-03-31T04:23:50.657Z,50.00
2019-03-31T04:24:50.585Z,49.10
2019-03-31T04:25:50.495Z,48.50
2019-03-31T04:26:50.406Z,50.10
2019-03-31T04:27:50.333Z,46.50
2019-03-31T04:28:50.242Z,49.40
2019-03-31T04:29:50.155Z,47.90
2019-03-31T04:30:50.092Z,49.60
2019-03-31T04:31:49.993Z,50.20
2019-03-31T04:32:49.996Z,51.50
2019-03-31T04:33:52.574Z,51.10
2019-03-31T04:34:49.749Z,52.80
2019-03-31T04:35:49.655Z,54.60
2019-03-31T04:36:49.574Z,52.40
2019-03-31T04:37:49.495Z,51.60
2019-03-31T04:38:49.405Z,50.40
2019-03-31T04:39:49.319Z,48.80
2019-03-31T04:40:49.242Z,58.20
2019-03-31T04:41:49.158Z,53.10
2019-03-31T04:42:49.068Z,54.70
2019-03-31T04:43:48.995Z,54.00
2019-03-31T04:44:48.906Z,52.80
2019-03-31T04:45:48.832Z,54.30
2019-03-31T04:46:48.736Z,53.90
2019-03-31T04:47:48.661Z,50.30
2019-03-31T04:48:48.569Z,55.50
2019-03-31T04:49:48.482Z,56.20
2019-03-31T04:50:51.718Z,50.50
2019-03-31T04:51:48.332Z,52.90
2019-03-31T04:52:48.232Z,54.00
2019-03-31T04:53:48.145Z,55.10
2019-03-31T04:54:48.071Z,54.10
2019-03-31T04:55:47.982Z,53.00
2019-03-31T04:56:47.898Z,53.20
2019-03-31T04:57:47.820Z,54.30
2019-03-31T04:58:47.732Z,53.50
2019-03-31T04:59:47.645Z,56.90
2019-03-31T05:00:47.571Z,51.30
2019-03-31T05:01:47.483Z,54.50
2019-03-31T05:02:47.396Z,52.40
2019-03-31T05:03:47.320Z,53.30
2019-03-31T05:04:47.234Z,53.50
2019-03-31T05:05:47.158Z,51.90
2019-03-31T05:06:47.059Z,52.40
2019-03-31T05:07:46.984Z,53.70
2019-03-31T05:08:46.895Z,54.20
2019-03-31T05:09:46.809Z,55.70
2019-03-31T05:10:46.738Z,54.70
2019-03-31T05:11:46.649Z,52.10
2019-03-31T05:12:46.560Z,55.40
2019-03-31T05:13:46.475Z,55.30
2019-03-31T05:14:46.396Z,54.40
2019-03-31T05:15:46.309Z,51.70
2019-03-31T05:16:46.222Z,53.10
2019-03-31T05:17:46.149Z,53.30
2019-03-31T05:18:46.059Z,51.30
2019-03-31T05:19:45.972Z,52.50
2019-03-31T05:20:45.910Z,52.70
2019-03-31T05:21:45.810Z,55.40
2019-03-31T05:22:45.722Z,54.30
2019-03-31T05:23:45.654Z,54.60
2019-03-31T05:24:45.560Z,52.40
2019-03-31T05:25:45.472Z,54.20
2019-03-31T05:26:45.397Z,52.90
2019-03-31T05:27:45.311Z,48.60
2019-03-31T05:28:45.222Z,51.30
2019-03-31T05:29:45.147Z,50.00
2019-03-31T05:30:45.065Z,52.00
2019-03-31T05:31:44.974Z,52.60
2019-03-31T05:32:44.898Z,52.60
2019-03-31T05:33:44.812Z,54.20
2019-03-31T05:34:44.738Z,53.10
2019-03-31T05:35:44.642Z,52.00
2019-03-31T05:36:44.560Z,49.50
2019-03-31T05:37:50.858Z,54.30
2019-03-31T05:38:44.436Z,54.50
2019-03-31T05:39:44.299Z,55.20
2019-03-31T05:40:44.276Z,49.10
2019-03-31T05:41:44.137Z,54.40
2019-03-31T05:42:44.051Z,53.20
2019-03-31T05:43:43.975Z,50.00
2019-03-31T05:44:43.889Z,52.60
2019-03-31T05:45:43.800Z,53.40
2019-03-31T05:46:43.741Z,53.30
2019-03-31T05:47:43.641Z,55.90
2019-03-31T05:48:43.550Z,53.00
2019-03-31T05:49:43.475Z,55.90
2019-03-31T05:50:43.387Z,51.40
2019-03-31T05:51:43.300Z,50.10
2019-03-31T05:52:43.229Z,47.50
2019-03-31T05:53:43.138Z,49.70
2019-03-31T05:54:43.053Z,52.40
2019-03-31T05:55:42.977Z,52.50
2019-03-31T05:56:42.889Z,52.20
2019-03-31T05:57:42.801Z,53.40
2019-03-31T05:58:42.725Z,49.30
2019-03-31T05:59:42.722Z,52.60
2019-03-31T06:00:42.551Z,51.50
2019-03-31T06:01:42.476Z,53.40
2019-03-31T06:02:42.392Z,51.00
2019-03-31T06:03:42.301Z,56.00
2019-03-31T06:04:42.214Z,55.30
2019-03-31T06:05:42.139Z,57.20
2019-03-31T06:06:42.053Z,53.50
2019-03-31T06:07:41.965Z,54.10
2019-03-31T06:08:41.901Z,51.10
2019-03-31T06:09:41.804Z,53.90
2019-03-31T06:10:41.727Z,55.10
2019-03-31T06:11:41.641Z,56.30
2019-03-31T06:12:41.553Z,52.30
2019-03-31T06:13:41.481Z,51.30
2019-03-31T06:14:41.394Z,55.70
2019-03-31T06:15:41.306Z,52.30
2019-03-31T06:16:41.220Z,50.60
2019-03-31T06:17:41.142Z,51.10
2019-03-31T06:18:41.052Z,51.40
2019-03-31T06:19:40.967Z,50.80
2019-03-31T06:20:40.891Z,53.20
2019-03-31T06:21:40.804Z,49.60
2019-03-31T06:22:40.729Z,49.60
2019-03-31T06:23:40.642Z,54.10
2019-03-31T06:24:40.554Z,49.70
2019-03-31T06:25:40.479Z,49.40
2019-03-31T06:26:40.392Z,46.30
2019-03-31T06:27:40.305Z,47.10
2019-03-31T06:28:40.229Z,49.20
2019-03-31T06:29:40.143Z,47.60
2019-03-31T06:30:40.057Z,45.40
2019-03-31T06:31:39.982Z,48.60
2019-03-31T06:32:39.892Z,49.00
2019-03-31T06:33:39.805Z,48.30
2019-03-31T06:34:47.288Z,47.70
2019-03-31T06:35:39.644Z,47.40
2019-03-31T06:36:39.555Z,48.10
2019-03-31T06:37:39.480Z,44.20
2019-03-31T06:38:39.393Z,42.90
2019-03-31T06:39:39.305Z,45.00
2019-03-31T06:40:39.246Z,46.00
2019-03-31T06:41:39.144Z,44.60
2019-03-31T06:42:39.056Z,42.10
2019-03-31T06:43:38.980Z,41.40
2019-03-31T06:44:38.905Z,43.20
2019-03-31T06:45:38.807Z,40.30
2019-03-31T06:46:38.732Z,43.20
2019-03-31T06:47:38.644Z,41.70
2019-03-31T06:48:38.570Z,41.80
2019-03-31T06:49:38.481Z,39.50
2019-03-31T06:50:38.395Z,42.30
2019-03-31T06:51:38.319Z,40.20
2019-03-31T06:52:38.231Z,42.20
2019-03-31T06:53:38.150Z,42.30
2019-03-31T06:54:38.070Z,41.30
2019-03-31T06:55:37.995Z,39.10
2019-03-31T06:56:37.908Z,39.90
2019-03-31T06:57:37.824Z,39.50
2019-03-31T06:58:37.732Z,37.40
2019-03-31T06:59:37.657Z,33.70
2019-03-31T07:00:37.571Z,34.60
2019-03-31T07:01:37.496Z,34.90
2019-03-31T07:02:37.495Z,33.80
2019-03-31T07:03:37.322Z,34.60
2019-03-31T07:04:37.247Z,33.90
2019-03-31T07:05:37.157Z,33.90
2019-03-31T07:06:37.084Z,33.10
2019-03-31T07:07:36.996Z,33.20
2019-03-31T07:08:36.908Z,32.40
2019-03-31T07:09:36.837Z,31.80
2019-03-31T07:10:36.747Z,33.10
2019-03-31T07:11:36.672Z,32.80
2019-03-31T07:12:36.585Z,31.30
2019-03-31T07:13:36.501Z,31.10
2019-03-31T07:14:36.422Z,33.50
2019-03-31T07:15:36.335Z,32.70
2019-03-31T07:16:36.259Z,31.40
2019-03-31T07:17:36.172Z,32.60
2019-03-31T07:18:36.099Z,30.20
2019-03-31T07:19:36.010Z,31.10
2019-03-31T07:20:35.923Z,30.90
2019-03-31T07:21:35.849Z,26.50
2019-03-31T07:22:35.761Z,26.80
2019-03-31T07:23:35.684Z,24.90
2019-03-31T07:24:35.598Z,27.00
2019-03-31T07:25:37.206Z,22.60
2019-03-31T07:26:35.436Z,28.30
2019-03-31T07:27:35.361Z,26.00
2019-03-31T07:28:35.276Z,24.60
2019-03-31T07:29:35.201Z,26.40
2019-03-31T07:30:35.124Z,24.90
2019-03-31T07:31:35.036Z,26.60
2019-03-31T07:32:34.949Z,26.90
2019-03-31T07:33:34.874Z,24.50
2019-03-31T07:34:34.786Z,24.20
2019-03-31T07:35:34.712Z,25.00
2019-03-31T07:36:34.624Z,24.00
2019-03-31T07:37:46.550Z,24.00
2019-03-31T07:38:39.263Z,24.10
2019-03-31T07:39:34.594Z,25.40
2019-03-31T07:40:34.311Z,24.20
2019-03-31T07:41:34.395Z,25.40
2019-03-31T07:42:34.152Z,21.70
2019-03-31T07:43:34.078Z,25.90
2019-03-31T07:44:33.988Z,23.20
2019-03-31T07:45:33.913Z,22.70
2019-03-31T07:46:33.826Z,24.20
2019-03-31T07:47:33.751Z,22.50
2019-03-31T07:48:33.691Z,26.40
2019-03-31T07:49:33.590Z,26.30
2019-03-31T07:50:33.520Z,25.80
2019-03-31T07:51:33.426Z,25.20
2019-03-31T07:52:33.378Z,24.00
2019-03-31T07:53:33.276Z,23.00
2019-03-31T07:54:33.189Z,24.70
2019-03-31T07:55:33.103Z,26.50
2019-03-31T07:56:33.027Z,24.50
2019-03-31T07:57:33.048Z,23.60
2019-03-31T07:58:32.863Z,23.10
2019-03-31T07:59:32.789Z,23.10
2019-03-31T08:00:32.704Z,26.30
2019-03-31T08:01:32.627Z,25.30
2019-03-31T08:02:32.539Z,25.20
2019-03-31T08:03:32.466Z,25.30
2019-03-31T08:04:32.377Z,22.10
2019-03-31T08:05:34.025Z,22.70
2019-03-31T08:06:32.215Z,20.90
2019-03-31T08:07:32.139Z,21.70
2019-03-31T08:08:32.053Z,22.30
2019-03-31T08:09:31.978Z,23.40
2019-03-31T08:10:31.893Z,23.10
2019-03-31T08:11:31.815Z,22.60
2019-03-31T08:12:31.729Z,22.40
2019-03-31T08:13:31.653Z,21.50
2019-03-31T08:14:31.566Z,20.80
2019-03-31T08:15:31.491Z,23.50
2019-03-31T08:16:31.405Z,26.10
2019-03-31T08:17:31.329Z,23.80
2019-03-31T08:18:31.242Z,24.50
2019-03-31T08:19:31.166Z,25.90
2019-03-31T08:20:31.080Z,27.50
2019-03-31T08:21:31.005Z,27.40
2019-03-31T08:22:30.916Z,26.90
2019-03-31T08:23:30.842Z,24.40
2019-03-31T08:24:30.754Z,25.20
2019-03-31T08:25:30.680Z,24.50
2019-03-31T08:26:30.593Z,26.50
2019-03-31T08:27:30.520Z,21.90
2019-03-31T08:28:30.429Z,23.70
2019-03-31T08:29:30.343Z,23.80
2019-03-31T08:30:30.278Z,20.40
2019-03-31T08:31:30.182Z,25.10
2019-03-31T08:32:30.107Z,23.40
2019-03-31T08:33:30.018Z,25.30
2019-03-31T08:34:29.944Z,24.50
2019-03-31T08:35:29.857Z,21.60
2019-03-31T08:36:29.770Z,19.30
2019-03-31T08:37:29.697Z,19.40
2019-03-31T08:38:29.608Z,21.10
2019-03-31T08:39:29.531Z,20.70
2019-03-31T08:40:29.444Z,21.20
2019-03-31T08:41:29.368Z,20.00
2019-03-31T08:42:29.282Z,17.20
2019-03-31T08:43:29.207Z,16.30
2019-03-31T08:44:29.119Z,18.40
2019-03-31T08:45:30.417Z,15.70
2019-03-31T08:46:28.958Z,15.20
2019-03-31T08:47:28.889Z,13.80
2019-03-31T08:48:28.800Z,14.50
2019-03-31T08:49:28.720Z,16.90
2019-03-31T08:50:28.632Z,16.00
2019-03-31T08:51:28.558Z,13.30
2019-03-31T08:52:28.469Z,14.80
2019-03-31T08:53:28.394Z,15.80
2019-03-31T08:54:28.308Z,15.20
2019-03-31T08:55:28.233Z,16.50
2019-03-31T08:56:28.145Z,15.50
2019-03-31T08:57:28.083Z,15.90
2019-03-31T08:58:27.983Z,16.60
2019-03-31T08:59:27.909Z,14.50
2019-03-31T09:00:27.833Z,16.00
2019-03-31T09:01:27.746Z,16.80
2019-03-31T09:02:27.689Z,17.20
2019-03-31T09:03:27.584Z,15.90
2019-03-31T09:04:27.497Z,16.80
2019-03-31T09:05:27.422Z,17.00
2019-03-31T09:06:27.349Z,17.50
2019-03-31T09:07:27.343Z,16.90
2019-03-31T09:08:27.184Z,16.10
2019-03-31T09:09:27.096Z,17.10
2019-03-31T09:10:27.022Z,16.60
2019-03-31T09:11:26.935Z,15.10
2019-03-31T09:12:26.861Z,16.50
2019-03-31T09:13:26.773Z,18.30
2019-03-31T09:14:26.697Z,18.60
2019-03-31T09:15:26.612Z,18.50
2019-03-31T09:16:26.535Z,16.80
2019-03-31T09:17:26.447Z,15.40
2019-03-31T09:18:26.372Z,15.40
2019-03-31T09:19:26.287Z,15.30
2019-03-31T09:20:26.204Z,16.40
2019-03-31T09:21:26.123Z,15.40
2019-03-31T09:22:26.049Z,16.00
2019-03-31T09:23:25.962Z,17.00
2019-03-31T09:24:25.874Z,18.20
2019-03-31T09:25:25.798Z,17.40
2019-03-31T09:26:25.723Z,19.20
2019-03-31T09:27:25.637Z,19.80
2019-03-31T09:28:25.563Z,19.00
2019-03-31T09:29:25.474Z,19.10
2019-03-31T09:30:25.388Z,19.80
2019-03-31T09:31:25.312Z,17.40
2019-03-31T09:32:25.224Z,16.20
2019-03-31T09:33:25.161Z,17.60
2019-03-31T09:34:25.064Z,18.30
2019-03-31T09:35:24.976Z,15.40
2019-03-31T09:36:24.899Z,15.70
2019-03-31T09:37:24.824Z,13.80
2019-03-31T09:38:24.737Z,15.10
2019-03-31T09:39:24.649Z,12.30
2019-03-31T09:40:24.576Z,14.30
2019-03-31T09:41:24.487Z,15.00
2019-03-31T09:42:24.418Z,14.10
2019-03-31T09:43:24.325Z,13.70
2019-03-31T09:44:24.251Z,13.40
2019-03-31T09:45:24.163Z,12.40
2019-03-31T09:46:24.076Z,11.60
2019-03-31T09:47:24.000Z,13.30
2019-03-31T09:48:23.943Z,12.10
2019-03-31T09:49:23.840Z,12.90
2019-03-31T09:50:23.752Z,12.10
2019-03-31T09:51:23.676Z,14.80
2019-03-31T09:52:23.637Z,15.20
2019-03-31T09:53:23.502Z,12.30
2019-03-31T09:54:23.426Z,12.80
2019-03-31T09:55:23.394Z,14.40
2019-03-31T09:56:23.265Z,12.90
2019-03-31T09:57:23.177Z,13.20
2019-03-31T09:58:23.119Z,14.20
2019-03-31T09:59:23.015Z,11.60
2019-03-31T10:00:22.946Z,13.20
2019-03-31T10:01:22.852Z,13.00
2019-03-31T10:02:22.779Z,14.00
2019-03-31T10:03:22.692Z,13.90
2019-03-31T10:04:22.604Z,11.60
2019-03-31T10:05:22.532Z,11.70
2019-03-31T10:06:30.191Z,11.40
2019-03-31T10:07:23.886Z,11.20
2019-03-31T10:08:22.493Z,12.30
2019-03-31T10:09:22.204Z,12.60
2019-03-31T10:10:22.117Z,10.80
2019-03-31T10:11:22.042Z,12.50
2019-03-31T10:12:22.036Z,9.90
2019-03-31T10:13:21.883Z,11.10
2019-03-31T10:14:21.791Z,9.20
2019-03-31T10:15:21.717Z,10.00
2019-03-31T10:16:21.641Z,9.00
2019-03-31T10:17:21.553Z,10.30
2019-03-31T10:18:21.468Z,8.50
2019-03-31T10:19:21.392Z,9.40
2019-03-31T10:20:21.305Z,8.50
2019-03-31T10:21:21.242Z,8.50
2019-03-31T10:22:21.145Z,9.30
2019-03-31T10:23:21.071Z,8.70
2019-03-31T10:24:20.979Z,7.00
2019-03-31T10:25:20.905Z,7.50
2019-03-31T10:26:31.155Z,8.00
2019-03-31T10:27:20.743Z,8.30
2019-03-31T10:28:20.655Z,7.90
2019-03-31T10:29:20.596Z,10.80
2019-03-31T10:30:20.496Z,8.50
2019-03-31T10:31:20.425Z,9.50
2019-03-31T10:32:20.330Z,8.60
2019-03-31T10:33:20.255Z,9.90
2019-03-31T10:34:20.172Z,7.90
2019-03-31T10:35:20.094Z,7.80
2019-03-31T10:36:20.008Z,8.30
2019-03-31T10:37:19.931Z,8.10
2019-03-31T10:38:19.845Z,9.00
2019-03-31T10:39:19.773Z,7.80
2019-03-31T10:40:19.683Z,6.20
2019-03-31T10:41:19.606Z,6.30
2019-03-31T10:42:19.521Z,6.20
2019-03-31T10:43:19.445Z,7.10
2019-03-31T10:44:19.356Z,6.50
2019-03-31T10:45:19.283Z,5.60
2019-03-31T10:46:19.195Z,6.50
2019-03-31T10:47:19.121Z,7.60
2019-03-31T10:48:20.692Z,6.30
2019-03-31T10:49:18.958Z,6.60
2019-03-31T10:50:18.871Z,6.30
2019-03-31T10:51:18.796Z,5.90
2019-03-31T10:52:18.720Z,5.80
2019-03-31T10:53:18.634Z,5.40
2019-03-31T10:54:18.546Z,5.60
2019-03-31T10:55:18.472Z,6.30
2019-03-31T10:56:18.384Z,5.80
2019-03-31T10:57:18.309Z,6.10
2019-03-31T10:58:18.270Z,4.70
2019-03-31T10:59:18.148Z,5.90
2019-03-31T11:00:18.059Z,5.00
2019-03-31T11:01:17.986Z,5.80
2019-03-31T11:02:17.910Z,5.70
2019-03-31T11:03:17.921Z,5.40
2019-03-31T11:04:17.736Z,4.80
2019-03-31T11:05:17.672Z,5.70
2019-03-31T11:06:17.572Z,5.90
2019-03-31T11:07:17.499Z,5.90
2019-03-31T11:08:17.409Z,5.40
2019-03-31T11:09:17.334Z,5.50
2019-03-31T11:10:17.247Z,5.70
2019-03-31T11:11:17.173Z,5.30
2019-03-31T11:12:17.085Z,5.30
2019-03-31T11:13:17.010Z,4.80
2019-03-31T11:14:16.925Z,5.80
2019-03-31T11:15:16.848Z,6.60
2019-03-31T11:16:16.763Z,5.00
2019-03-31T11:17:16.702Z,6.20
2019-03-31T11:18:16.610Z,7.40
2019-03-31T11:19:16.524Z,6.30
2019-03-31T11:20:16.449Z,6.30
2019-03-31T11:21:16.360Z,5.80
2019-03-31T11:22:16.287Z,6.60
2019-03-31T11:23:16.200Z,7.10
2019-03-31T11:24:16.125Z,6.40
2019-03-31T11:25:22.109Z,5.10
2019-03-31T11:26:15.962Z,7.30
2019-03-31T11:27:15.890Z,6.50
2019-03-31T11:28:15.811Z,5.50
2019-03-31T11:29:15.729Z,4.30
2019-03-31T11:30:15.649Z,5.20
2019-03-31T11:31:17.961Z,5.60
2019-03-31T11:32:15.500Z,6.40
2019-03-31T11:33:15.413Z,6.20
2019-03-31T11:34:15.350Z,7.80
2019-03-31T11:35:15.263Z,5.00
2019-03-31T11:36:15.188Z,7.10
2019-03-31T11:37:15.114Z,5.70
2019-03-31T11:38:15.026Z,5.00
2019-03-31T11:39:16.499Z,6.20
2019-03-31T11:40:14.879Z,6.80
2019-03-31T11:41:14.802Z,4.40
2019-03-31T11:42:14.726Z,5.70
2019-03-31T11:43:14.650Z,5.60
2019-03-31T11:44:14.577Z,5.30
2019-03-31T11:45:14.501Z,5.00
2019-03-31T11:46:14.427Z,4.70
2019-03-31T11:47:14.351Z,6.10
2019-03-31T11:48:14.278Z,6.40
2019-03-31T11:49:14.203Z,5.50
2019-03-31T11:50:14.127Z,5.80
2019-03-31T11:51:14.043Z,5.70
2019-03-31T11:52:13.977Z,5.10
2019-03-31T11:53:13.892Z,7.30
2019-03-31T11:54:13.814Z,6.40
2019-03-31T11:55:13.740Z,5.80
2019-03-31T11:56:13.665Z,5.10
2019-03-31T11:57:13.590Z,6.20
2019-03-31T11:58:13.515Z,6.80
2019-03-31T11:59:13.440Z,5.20
2019-03-31T12:00:13.361Z,6.00
2019-03-31T12:01:13.279Z,5.80
2019-03-31T12:02:26.521Z,4.30
2019-03-31T12:03:13.141Z,6.20
2019-03-31T12:04:13.044Z,5.00
2019-03-31T12:05:12.966Z,4.70
2019-03-31T12:06:12.891Z,6.20
2019-03-31T12:07:26.984Z,7.00
2019-03-31T12:08:12.731Z,8.70
2019-03-31T12:09:12.659Z,6.30
2019-03-31T12:10:12.579Z,5.40
2019-03-31T12:11:12.491Z,5.30
2019-03-31T12:12:12.419Z,4.70
2019-03-31T12:13:12.341Z,6.00
2019-03-31T12:14:12.266Z,6.10
2019-03-31T12:15:12.180Z,6.40
2019-03-31T12:16:12.105Z,6.30
2019-03-31T12:17:12.031Z,5.70
2019-03-31T12:18:11.955Z,6.40
2019-03-31T12:19:11.881Z,4.80
2019-03-31T12:20:11.807Z,7.00
2019-03-31T12:21:11.730Z,4.70
2019-03-31T12:22:11.655Z,5.50
2019-03-31T12:23:11.567Z,5.00
2019-03-31T12:24:11.492Z,5.50
2019-03-31T12:25:11.418Z,6.00
2019-03-31T12:26:11.344Z,3.70
2019-03-31T12:27:11.267Z,5.40
2019-03-31T12:28:11.193Z,4.90
2019-03-31T12:29:11.117Z,3.20
2019-03-31T12:30:11.044Z,5.50
2019-03-31T12:31:10.976Z,5.00
2019-03-31T12:32:10.907Z,4.30
2019-03-31T12:33:10.820Z,3.90
2019-03-31T12:34:10.757Z,3.10
2019-03-31T12:35:10.682Z,4.20
2019-03-31T12:36:10.607Z,5.30
2019-03-31T12:37:10.534Z,3.60
2019-03-31T12:38:10.457Z,5.00
2019-03-31T12:39:10.382Z,4.00
2019-03-31T12:40:10.370Z,4.40
2019-03-31T12:41:10.234Z,5.40
2019-03-31T12:42:10.158Z,4.00
2019-03-31T12:43:10.084Z,3.10
2019-03-31T12:44:10.016Z,4.50
2019-03-31T12:45:09.933Z,5.10
2019-03-31T12:46:09.858Z,3.60
2019-03-31T12:47:09.783Z,3.60
2019-03-31T12:48:09.708Z,3.40
2019-03-31T12:49:09.634Z,4.00
2019-03-31T12:50:09.626Z,3.40
2019-03-31T12:51:09.483Z,3.60
2019-03-31T12:52:09.397Z,3.60
2019-03-31T12:53:09.322Z,3.80
2019-03-31T12:54:09.246Z,2.80
2019-03-31T12:55:09.175Z,3.30
2019-03-31T12:56:09.096Z,3.40